sensor_id;sensor_type;location;lat;lon;timestamp;P1;durP1;ratioP1;P2;durP2;ratioP2
17925;SDS011;9088;55.674;13.354;2023-05-15T00:01:24;0.40;;;0.40;;
17925;SDS011;9088;55.674;13.354;2023-05-15T00:03:51;0.40;;;0.40;;
17925;SDS011;9088;55.674;13.354;2023-05-15T00:06:19;0.40;;;0.40;;
17925;SDS011;9088;55.674;13.354;2023-05-15T00:08:46;0.40;;;0.40;;
17925;SDS011;9088;55.674;13.354;2023-05-15T00:11:13;0.40;;;0.40;;
17925;SDS011;9088;55.674;13.354;2023-05-15T00:13:40;0.40;;;0.40;;
17925;SDS011;9088;55.674;13.354;2023-05-15T00:16:07;0.40;;;0.40;;
17925;SDS011;9088;55.674;13.354;2023-05-15T00:18:35;0.30;;;0.30;;
17925;SDS011;9088;55.674;13.354;2023-05-15T00:21:02;0.37;;;0.37;;
17925;SDS011;9088;55.674;13.354;2023-05-15T00:23:29;0.30;;;0.30;;
17925;SDS011;9088;55.674;13.354;2023-05-15T00:25:56;0.30;;;0.30;;
17925;SDS011;9088;55.674;13.354;2023-05-15T00:28:23;0.40;;;0.40;;
17925;SDS011;9088;55.674;13.354;2023-05-15T00:30:50;0.40;;;0.40;;
17925;SDS011;9088;55.674;13.354;2023-05-15T00:33:18;0.30;;;0.30;;
17925;SDS011;9088;55.674;13.354;2023-05-15T00:35:46;0.40;;;0.40;;
17925;SDS011;9088;55.674;13.354;2023-05-15T00:38:13;0.40;;;0.40;;
17925;SDS011;9088;55.674;13.354;2023-05-15T00:40:41;0.40;;;0.40;;
17925;SDS011;9088;55.674;13.354;2023-05-15T00:43:09;0.40;;;0.40;;
17925;SDS011;9088;55.674;13.354;2023-05-15T00:45:37;0.40;;;0.40;;
17925;SDS011;9088;55.674;13.354;2023-05-15T00:48:05;0.40;;;0.40;;
17925;SDS011;9088;55.674;13.354;2023-05-15T00:50:33;0.30;;;0.30;;
17925;SDS011;9088;55.674;13.354;2023-05-15T00:53:01;0.30;;;0.30;;
17925;SDS011;9088;55.674;13.354;2023-05-15T00:55:28;0.30;;;0.30;;
17925;SDS011;9088;55.674;13.354;2023-05-15T00:57:57;0.40;;;0.40;;
17925;SDS011;9088;55.674;13.354;2023-05-15T01:00:24;0.30;;;0.30;;
17925;SDS011;9088;55.674;13.354;2023-05-15T01:02:52;0.30;;;0.30;;
17925;SDS011;9088;55.674;13.354;2023-05-15T01:05:19;0.30;;;0.30;;
17925;SDS011;9088;55.674;13.354;2023-05-15T01:07:48;0.30;;;0.30;;
17925;SDS011;9088;55.674;13.354;2023-05-15T01:10:19;0.30;;;0.30;;
17925;SDS011;9088;55.674;13.354;2023-05-15T01:12:47;0.40;;;0.40;;
17925;SDS011;9088;55.674;13.354;2023-05-15T01:15:16;0.40;;;0.40;;
17925;SDS011;9088;55.674;13.354;2023-05-15T01:17:43;0.40;;;0.40;;
17925;SDS011;9088;55.674;13.354;2023-05-15T01:20:10;0.40;;;0.40;;
17925;SDS011;9088;55.674;13.354;2023-05-15T01:22:50;0.30;;;0.30;;
17925;SDS011;9088;55.674;13.354;2023-05-15T01:25:45;0.40;;;0.40;;
17925;SDS011;9088;55.674;13.354;2023-05-15T01:28:13;0.40;;;0.40;;
17925;SDS011;9088;55.674;13.354;2023-05-15T01:30:44;0.30;;;0.30;;
17925;SDS011;9088;55.674;13.354;2023-05-15T01:33:14;0.40;;;0.40;;
17925;SDS011;9088;55.674;13.354;2023-05-15T01:35:44;0.40;;;0.40;;
17925;SDS011;9088;55.674;13.354;2023-05-15T01:38:14;0.40;;;0.40;;
17925;SDS011;9088;55.674;13.354;2023-05-15T01:40:44;0.40;;;0.40;;
17925;SDS011;9088;55.674;13.354;2023-05-15T01:43:17;0.30;;;0.30;;
17925;SDS011;9088;55.674;13.354;2023-05-15T01:45:44;0.37;;;0.37;;
17925;SDS011;9088;55.674;13.354;2023-05-15T01:48:11;0.40;;;0.40;;
17925;SDS011;9088;55.674;13.354;2023-05-15T01:50:39;0.40;;;0.40;;
17925;SDS011;9088;55.674;13.354;2023-05-15T01:53:07;0.40;;;0.40;;
17925;SDS011;9088;55.674;13.354;2023-05-15T01:55:35;0.40;;;0.40;;
17925;SDS011;9088;55.674;13.354;2023-05-15T01:58:03;0.30;;;0.30;;
17925;SDS011;9088;55.674;13.354;2023-05-15T02:00:32;0.40;;;0.40;;
17925;SDS011;9088;55.674;13.354;2023-05-15T02:02:59;0.40;;;0.40;;
17925;SDS011;9088;55.674;13.354;2023-05-15T02:05:27;0.40;;;0.40;;
17925;SDS011;9088;55.674;13.354;2023-05-15T02:07:55;0.40;;;0.40;;
17925;SDS011;9088;55.674;13.354;2023-05-15T02:10:22;0.30;;;0.30;;
17925;SDS011;9088;55.674;13.354;2023-05-15T02:12:49;0.30;;;0.30;;
17925;SDS011;9088;55.674;13.354;2023-05-15T02:15:16;0.30;;;0.30;;
17925;SDS011;9088;55.674;13.354;2023-05-15T02:17:48;0.30;;;0.30;;
17925;SDS011;9088;55.674;13.354;2023-05-15T02:20:15;0.40;;;0.40;;
17925;SDS011;9088;55.674;13.354;2023-05-15T02:22:42;0.40;;;0.40;;
17925;SDS011;9088;55.674;13.354;2023-05-15T02:25:09;0.30;;;0.30;;
17925;SDS011;9088;55.674;13.354;2023-05-15T02:27:37;0.40;;;0.40;;
17925;SDS011;9088;55.674;13.354;2023-05-15T02:30:12;0.40;;;0.40;;
17925;SDS011;9088;55.674;13.354;2023-05-15T02:32:46;0.40;;;0.40;;
17925;SDS011;9088;55.674;13.354;2023-05-15T02:35:17;0.40;;;0.40;;
17925;SDS011;9088;55.674;13.354;2023-05-15T02:37:45;0.30;;;0.30;;
17925;SDS011;9088;55.674;13.354;2023-05-15T02:40:13;0.37;;;0.37;;
17925;SDS011;9088;55.674;13.354;2023-05-15T02:42:41;0.40;;;0.40;;
17925;SDS011;9088;55.674;13.354;2023-05-15T02:45:09;0.30;;;0.30;;
17925;SDS011;9088;55.674;13.354;2023-05-15T02:47:37;0.40;;;0.40;;
17925;SDS011;9088;55.674;13.354;2023-05-15T02:50:07;0.40;;;0.40;;
17925;SDS011;9088;55.674;13.354;2023-05-15T02:52:34;0.50;;;0.50;;
17925;SDS011;9088;55.674;13.354;2023-05-15T02:55:01;0.40;;;0.40;;
17925;SDS011;9088;55.674;13.354;2023-05-15T02:57:28;0.40;;;0.40;;
17925;SDS011;9088;55.674;13.354;2023-05-15T02:59:55;0.40;;;0.40;;
17925;SDS011;9088;55.674;13.354;2023-05-15T03:02:23;0.47;;;0.47;;
17925;SDS011;9088;55.674;13.354;2023-05-15T03:04:50;0.40;;;0.40;;
17925;SDS011;9088;55.674;13.354;2023-05-15T03:07:18;0.30;;;0.30;;
17925;SDS011;9088;55.674;13.354;2023-05-15T03:09:45;0.40;;;0.40;;
17925;SDS011;9088;55.674;13.354;2023-05-15T03:12:12;0.40;;;0.40;;
17925;SDS011;9088;55.674;13.354;2023-05-15T03:14:39;1.70;;;1.70;;
17925;SDS011;9088;55.674;13.354;2023-05-15T03:17:06;1.70;;;1.70;;
17925;SDS011;9088;55.674;13.354;2023-05-15T03:19:33;1.63;;;1.63;;
17925;SDS011;9088;55.674;13.354;2023-05-15T03:22:00;1.83;;;1.83;;
17925;SDS011;9088;55.674;13.354;2023-05-15T03:24:28;1.80;;;1.80;;
17925;SDS011;9088;55.674;13.354;2023-05-15T03:26:55;1.70;;;1.70;;
17925;SDS011;9088;55.674;13.354;2023-05-15T03:29:23;1.80;;;1.80;;
17925;SDS011;9088;55.674;13.354;2023-05-15T03:31:50;1.70;;;1.70;;
17925;SDS011;9088;55.674;13.354;2023-05-15T03:34:17;1.63;;;1.63;;
17925;SDS011;9088;55.674;13.354;2023-05-15T03:36:44;1.90;;;1.90;;
17925;SDS011;9088;55.674;13.354;2023-05-15T03:39:11;1.73;;;1.73;;
17925;SDS011;9088;55.674;13.354;2023-05-15T03:41:39;1.80;;;1.80;;
17925;SDS011;9088;55.674;13.354;2023-05-15T03:44:06;2.00;;;1.90;;
17925;SDS011;9088;55.674;13.354;2023-05-15T03:46:33;1.80;;;1.80;;
17925;SDS011;9088;55.674;13.354;2023-05-15T03:49:00;1.70;;;1.70;;
17925;SDS011;9088;55.674;13.354;2023-05-15T03:51:27;1.80;;;1.80;;
17925;SDS011;9088;55.674;13.354;2023-05-15T03:53:54;1.90;;;1.90;;
17925;SDS011;9088;55.674;13.354;2023-05-15T03:56:21;1.70;;;1.70;;
17925;SDS011;9088;55.674;13.354;2023-05-15T03:58:50;1.70;;;1.70;;
17925;SDS011;9088;55.674;13.354;2023-05-15T04:01:17;2.03;;;1.93;;
17925;SDS011;9088;55.674;13.354;2023-05-15T04:03:44;1.80;;;1.80;;
17925;SDS011;9088;55.674;13.354;2023-05-15T04:06:11;1.80;;;1.80;;
17925;SDS011;9088;55.674;13.354;2023-05-15T04:08:38;1.90;;;1.90;;
17925;SDS011;9088;55.674;13.354;2023-05-15T04:11:05;1.80;;;1.80;;
17925;SDS011;9088;55.674;13.354;2023-05-15T04:13:32;1.73;;;1.73;;
17925;SDS011;9088;55.674;13.354;2023-05-15T04:16:01;1.80;;;1.80;;
17925;SDS011;9088;55.674;13.354;2023-05-15T04:18:29;1.77;;;1.77;;
17925;SDS011;9088;55.674;13.354;2023-05-15T04:20:56;1.70;;;1.70;;
17925;SDS011;9088;55.674;13.354;2023-05-15T04:23:23;1.60;;;1.60;;
17925;SDS011;9088;55.674;13.354;2023-05-15T04:25:50;1.60;;;1.60;;
17925;SDS011;9088;55.674;13.354;2023-05-15T04:28:17;1.60;;;1.60;;
17925;SDS011;9088;55.674;13.354;2023-05-15T04:30:45;1.60;;;1.60;;
17925;SDS011;9088;55.674;13.354;2023-05-15T04:33:13;1.50;;;1.50;;
17925;SDS011;9088;55.674;13.354;2023-05-15T04:35:40;1.60;;;1.60;;
17925;SDS011;9088;55.674;13.354;2023-05-15T04:38:08;1.60;;;1.60;;
17925;SDS011;9088;55.674;13.354;2023-05-15T04:40:35;1.70;;;1.70;;
17925;SDS011;9088;55.674;13.354;2023-05-15T04:43:02;1.60;;;1.60;;
17925;SDS011;9088;55.674;13.354;2023-05-15T04:45:29;1.50;;;1.50;;
17925;SDS011;9088;55.674;13.354;2023-05-15T04:47:56;1.60;;;1.60;;
17925;SDS011;9088;55.674;13.354;2023-05-15T04:50:25;1.60;;;1.60;;
17925;SDS011;9088;55.674;13.354;2023-05-15T04:52:52;1.60;;;1.60;;
17925;SDS011;9088;55.674;13.354;2023-05-15T04:55:19;1.50;;;1.50;;
17925;SDS011;9088;55.674;13.354;2023-05-15T04:57:46;1.60;;;1.60;;
17925;SDS011;9088;55.674;13.354;2023-05-15T05:00:13;1.70;;;1.70;;
17925;SDS011;9088;55.674;13.354;2023-05-15T05:02:41;1.70;;;1.70;;
17925;SDS011;9088;55.674;13.354;2023-05-15T05:05:08;1.70;;;1.70;;
17925;SDS011;9088;55.674;13.354;2023-05-15T05:07:36;1.60;;;1.60;;
17925;SDS011;9088;55.674;13.354;2023-05-15T05:10:04;1.77;;;1.77;;
17925;SDS011;9088;55.674;13.354;2023-05-15T05:12:31;1.60;;;1.60;;
17925;SDS011;9088;55.674;13.354;2023-05-15T05:14:58;1.67;;;1.67;;
17925;SDS011;9088;55.674;13.354;2023-05-15T05:17:25;1.70;;;1.70;;
17925;SDS011;9088;55.674;13.354;2023-05-15T05:19:52;1.77;;;1.77;;
17925;SDS011;9088;55.674;13.354;2023-05-15T05:22:19;1.63;;;1.63;;
17925;SDS011;9088;55.674;13.354;2023-05-15T05:24:47;1.70;;;1.70;;
17925;SDS011;9088;55.674;13.354;2023-05-15T05:27:14;1.67;;;1.67;;
17925;SDS011;9088;55.674;13.354;2023-05-15T05:29:41;1.70;;;1.70;;
17925;SDS011;9088;55.674;13.354;2023-05-15T05:32:08;1.53;;;1.53;;
17925;SDS011;9088;55.674;13.354;2023-05-15T05:34:35;1.77;;;1.77;;
17925;SDS011;9088;55.674;13.354;2023-05-15T05:37:03;1.67;;;1.67;;
17925;SDS011;9088;55.674;13.354;2023-05-15T05:39:30;1.87;;;1.87;;
17925;SDS011;9088;55.674;13.354;2023-05-15T05:41:58;1.73;;;1.73;;
17925;SDS011;9088;55.674;13.354;2023-05-15T05:44:25;1.70;;;1.70;;
17925;SDS011;9088;55.674;13.354;2023-05-15T05:46:52;1.60;;;1.60;;
17925;SDS011;9088;55.674;13.354;2023-05-15T05:49:19;1.77;;;1.77;;
17925;SDS011;9088;55.674;13.354;2023-05-15T05:51:46;2.10;;;2.00;;
17925;SDS011;9088;55.674;13.354;2023-05-15T05:54:13;1.70;;;1.70;;
17925;SDS011;9088;55.674;13.354;2023-05-15T05:56:42;1.60;;;1.60;;
17925;SDS011;9088;55.674;13.354;2023-05-15T05:59:10;1.30;;;1.30;;
17925;SDS011;9088;55.674;13.354;2023-05-15T06:01:37;1.60;;;1.60;;
17925;SDS011;9088;55.674;13.354;2023-05-15T06:04:05;1.50;;;1.50;;
17925;SDS011;9088;55.674;13.354;2023-05-15T06:06:32;1.60;;;1.60;;
17925;SDS011;9088;55.674;13.354;2023-05-15T06:08:59;1.40;;;1.40;;
17925;SDS011;9088;55.674;13.354;2023-05-15T06:11:26;1.40;;;1.40;;
17925;SDS011;9088;55.674;13.354;2023-05-15T06:13:53;1.70;;;1.70;;
17925;SDS011;9088;55.674;13.354;2023-05-15T06:16:22;1.70;;;1.70;;
17925;SDS011;9088;55.674;13.354;2023-05-15T06:18:49;1.40;;;1.40;;
17925;SDS011;9088;55.674;13.354;2023-05-15T06:21:16;1.40;;;1.40;;
17925;SDS011;9088;55.674;13.354;2023-05-15T06:23:46;1.50;;;1.50;;
17925;SDS011;9088;55.674;13.354;2023-05-15T06:26:13;1.50;;;1.50;;
17925;SDS011;9088;55.674;13.354;2023-05-15T06:28:40;1.50;;;1.50;;
17925;SDS011;9088;55.674;13.354;2023-05-15T06:31:07;1.50;;;1.50;;
17925;SDS011;9088;55.674;13.354;2023-05-15T06:33:35;1.40;;;1.40;;
17925;SDS011;9088;55.674;13.354;2023-05-15T06:36:02;1.60;;;1.60;;
17925;SDS011;9088;55.674;13.354;2023-05-15T06:38:29;1.43;;;1.43;;
17925;SDS011;9088;55.674;13.354;2023-05-15T06:40:56;1.60;;;1.60;;
17925;SDS011;9088;55.674;13.354;2023-05-15T06:43:23;1.60;;;1.60;;
17925;SDS011;9088;55.674;13.354;2023-05-15T06:45:50;1.40;;;1.40;;
17925;SDS011;9088;55.674;13.354;2023-05-15T06:48:17;1.60;;;1.60;;
17925;SDS011;9088;55.674;13.354;2023-05-15T06:50:46;1.50;;;1.50;;
17925;SDS011;9088;55.674;13.354;2023-05-15T06:53:13;1.57;;;1.57;;
17925;SDS011;9088;55.674;13.354;2023-05-15T06:55:41;1.60;;;1.60;;
17925;SDS011;9088;55.674;13.354;2023-05-15T06:58:08;1.50;;;1.50;;
17925;SDS011;9088;55.674;13.354;2023-05-15T07:00:35;1.50;;;1.50;;
17925;SDS011;9088;55.674;13.354;2023-05-15T07:03:02;1.60;;;1.60;;
17925;SDS011;9088;55.674;13.354;2023-05-15T07:05:30;1.60;;;1.60;;
17925;SDS011;9088;55.674;13.354;2023-05-15T07:07:58;1.50;;;1.50;;
17925;SDS011;9088;55.674;13.354;2023-05-15T07:10:25;1.50;;;1.50;;
17925;SDS011;9088;55.674;13.354;2023-05-15T07:12:52;1.50;;;1.50;;
17925;SDS011;9088;55.674;13.354;2023-05-15T07:15:19;1.50;;;1.50;;
17925;SDS011;9088;55.674;13.354;2023-05-15T07:17:46;1.60;;;1.60;;
17925;SDS011;9088;55.674;13.354;2023-05-15T07:20:13;1.50;;;1.50;;
17925;SDS011;9088;55.674;13.354;2023-05-15T07:22:40;1.50;;;1.50;;
17925;SDS011;9088;55.674;13.354;2023-05-15T07:25:09;1.60;;;1.60;;
17925;SDS011;9088;55.674;13.354;2023-05-15T07:27:36;1.53;;;1.53;;
17925;SDS011;9088;55.674;13.354;2023-05-15T07:30:03;1.50;;;1.50;;
17925;SDS011;9088;55.674;13.354;2023-05-15T07:32:31;1.50;;;1.50;;
17925;SDS011;9088;55.674;13.354;2023-05-15T07:34:58;1.60;;;1.60;;
17925;SDS011;9088;55.674;13.354;2023-05-15T07:37:27;1.63;;;1.63;;
17925;SDS011;9088;55.674;13.354;2023-05-15T07:39:54;1.60;;;1.60;;
17925;SDS011;9088;55.674;13.354;2023-05-15T07:42:23;1.60;;;1.60;;
17925;SDS011;9088;55.674;13.354;2023-05-15T07:44:50;1.60;;;1.60;;
17925;SDS011;9088;55.674;13.354;2023-05-15T07:47:17;1.40;;;1.40;;
17925;SDS011;9088;55.674;13.354;2023-05-15T07:49:44;1.50;;;1.50;;
17925;SDS011;9088;55.674;13.354;2023-05-15T07:52:11;1.40;;;1.40;;
17925;SDS011;9088;55.674;13.354;2023-05-15T07:54:39;1.50;;;1.50;;
17925;SDS011;9088;55.674;13.354;2023-05-15T07:57:06;1.60;;;1.60;;
17925;SDS011;9088;55.674;13.354;2023-05-15T07:59:35;1.60;;;1.60;;
17925;SDS011;9088;55.674;13.354;2023-05-15T08:02:02;1.70;;;1.70;;
17925;SDS011;9088;55.674;13.354;2023-05-15T08:04:29;1.70;;;1.70;;
17925;SDS011;9088;55.674;13.354;2023-05-15T08:06:56;1.70;;;1.70;;
17925;SDS011;9088;55.674;13.354;2023-05-15T08:09:23;1.70;;;1.70;;
17925;SDS011;9088;55.674;13.354;2023-05-15T08:11:50;1.77;;;1.77;;
17925;SDS011;9088;55.674;13.354;2023-05-15T08:14:17;1.70;;;1.70;;
17925;SDS011;9088;55.674;13.354;2023-05-15T08:16:48;1.60;;;1.60;;
17925;SDS011;9088;55.674;13.354;2023-05-15T08:19:15;1.50;;;1.50;;
17925;SDS011;9088;55.674;13.354;2023-05-15T08:21:43;1.50;;;1.50;;
17925;SDS011;9088;55.674;13.354;2023-05-15T08:24:10;1.40;;;1.40;;
17925;SDS011;9088;55.674;13.354;2023-05-15T08:26:37;1.60;;;1.60;;
17925;SDS011;9088;55.674;13.354;2023-05-15T08:29:04;1.60;;;1.60;;
17925;SDS011;9088;55.674;13.354;2023-05-15T08:31:31;1.50;;;1.50;;
17925;SDS011;9088;55.674;13.354;2023-05-15T08:33:59;1.60;;;1.60;;
17925;SDS011;9088;55.674;13.354;2023-05-15T08:36:26;1.50;;;1.50;;
17925;SDS011;9088;55.674;13.354;2023-05-15T08:38:53;1.60;;;1.60;;
17925;SDS011;9088;55.674;13.354;2023-05-15T08:41:31;1.60;;;1.60;;
17925;SDS011;9088;55.674;13.354;2023-05-15T08:43:59;1.70;;;1.70;;
17925;SDS011;9088;55.674;13.354;2023-05-15T08:46:28;1.60;;;1.60;;
17925;SDS011;9088;55.674;13.354;2023-05-15T08:48:55;1.70;;;1.70;;
17925;SDS011;9088;55.674;13.354;2023-05-15T08:51:23;1.60;;;1.60;;
17925;SDS011;9088;55.674;13.354;2023-05-15T08:53:51;1.60;;;1.60;;
17925;SDS011;9088;55.674;13.354;2023-05-15T08:56:18;1.60;;;1.60;;
17925;SDS011;9088;55.674;13.354;2023-05-15T08:58:45;1.80;;;1.80;;
17925;SDS011;9088;55.674;13.354;2023-05-15T09:01:12;1.80;;;1.80;;
17925;SDS011;9088;55.674;13.354;2023-05-15T09:03:39;1.70;;;1.70;;
17925;SDS011;9088;55.674;13.354;2023-05-15T09:06:06;1.50;;;1.50;;
17925;SDS011;9088;55.674;13.354;2023-05-15T09:08:36;1.50;;;1.50;;
17925;SDS011;9088;55.674;13.354;2023-05-15T09:11:04;1.50;;;1.50;;
17925;SDS011;9088;55.674;13.354;2023-05-15T09:13:32;1.60;;;1.60;;
17925;SDS011;9088;55.674;13.354;2023-05-15T09:15:59;1.50;;;1.50;;
17925;SDS011;9088;55.674;13.354;2023-05-15T09:18:26;1.50;;;1.50;;
17925;SDS011;9088;55.674;13.354;2023-05-15T09:20:53;1.30;;;1.30;;
17925;SDS011;9088;55.674;13.354;2023-05-15T09:23:21;1.30;;;1.30;;
17925;SDS011;9088;55.674;13.354;2023-05-15T09:25:49;1.40;;;1.40;;
17925;SDS011;9088;55.674;13.354;2023-05-15T09:28:29;1.40;;;1.40;;
17925;SDS011;9088;55.674;13.354;2023-05-15T09:30:57;1.30;;;1.30;;
17925;SDS011;9088;55.674;13.354;2023-05-15T09:33:32;1.40;;;1.40;;
17925;SDS011;9088;55.674;13.354;2023-05-15T09:35:59;1.40;;;1.40;;
17925;SDS011;9088;55.674;13.354;2023-05-15T09:38:26;1.47;;;1.47;;
17925;SDS011;9088;55.674;13.354;2023-05-15T09:41:02;1.50;;;1.50;;
17925;SDS011;9088;55.674;13.354;2023-05-15T09:43:32;1.50;;;1.50;;
17925;SDS011;9088;55.674;13.354;2023-05-15T09:45:59;1.50;;;1.50;;
17925;SDS011;9088;55.674;13.354;2023-05-15T09:48:27;1.20;;;1.20;;
17925;SDS011;9088;55.674;13.354;2023-05-15T09:50:54;1.47;;;1.47;;
17925;SDS011;9088;55.674;13.354;2023-05-15T09:53:22;1.48;;;1.48;;
17925;SDS011;9088;55.674;13.354;2023-05-15T09:55:52;1.50;;;1.50;;
17925;SDS011;9088;55.674;13.354;2023-05-15T09:58:21;1.50;;;1.50;;
17925;SDS011;9088;55.674;13.354;2023-05-15T10:00:48;1.50;;;1.50;;
17925;SDS011;9088;55.674;13.354;2023-05-15T10:03:16;1.57;;;1.57;;
17925;SDS011;9088;55.674;13.354;2023-05-15T10:05:44;1.47;;;1.47;;
17925;SDS011;9088;55.674;13.354;2023-05-15T10:08:11;1.42;;;1.42;;
17925;SDS011;9088;55.674;13.354;2023-05-15T10:10:38;1.40;;;1.40;;
17925;SDS011;9088;55.674;13.354;2023-05-15T10:13:06;1.50;;;1.50;;
17925;SDS011;9088;55.674;13.354;2023-05-15T10:15:35;1.50;;;1.50;;
17925;SDS011;9088;55.674;13.354;2023-05-15T10:18:03;1.40;;;1.40;;
17925;SDS011;9088;55.674;13.354;2023-05-15T10:20:31;1.50;;;1.50;;
17925;SDS011;9088;55.674;13.354;2023-05-15T10:22:59;1.50;;;1.50;;
17925;SDS011;9088;55.674;13.354;2023-05-15T10:25:32;1.40;;;1.40;;
17925;SDS011;9088;55.674;13.354;2023-05-15T10:28:00;1.40;;;1.40;;
17925;SDS011;9088;55.674;13.354;2023-05-15T10:30:28;1.50;;;1.50;;
17925;SDS011;9088;55.674;13.354;2023-05-15T10:32:59;1.53;;;1.53;;
17925;SDS011;9088;55.674;13.354;2023-05-15T10:35:27;1.47;;;1.47;;
17925;SDS011;9088;55.674;13.354;2023-05-15T10:37:59;1.40;;;1.40;;
17925;SDS011;9088;55.674;13.354;2023-05-15T10:40:26;1.37;;;1.37;;
17925;SDS011;9088;55.674;13.354;2023-05-15T10:42:54;1.40;;;1.40;;
17925;SDS011;9088;55.674;13.354;2023-05-15T10:45:21;1.50;;;1.50;;
17925;SDS011;9088;55.674;13.354;2023-05-15T10:47:48;1.30;;;1.30;;
17925;SDS011;9088;55.674;13.354;2023-05-15T10:50:18;1.40;;;1.40;;
17925;SDS011;9088;55.674;13.354;2023-05-15T10:52:45;1.40;;;1.40;;
17925;SDS011;9088;55.674;13.354;2023-05-15T10:55:16;1.53;;;1.53;;
17925;SDS011;9088;55.674;13.354;2023-05-15T10:57:44;1.50;;;1.50;;
17925;SDS011;9088;55.674;13.354;2023-05-15T11:00:24;1.20;;;1.20;;
17925;SDS011;9088;55.674;13.354;2023-05-15T11:02:51;1.48;;;1.48;;
17925;SDS011;9088;55.674;13.354;2023-05-15T11:05:22;1.60;;;1.60;;
17925;SDS011;9088;55.674;13.354;2023-05-15T11:10:35;1.40;;;1.40;;
17925;SDS011;9088;55.674;13.354;2023-05-15T11:13:03;1.02;;;1.02;;
17925;SDS011;9088;55.674;13.354;2023-05-15T11:15:40;1.30;;;1.30;;
17925;SDS011;9088;55.674;13.354;2023-05-15T11:18:07;1.33;;;1.33;;
17925;SDS011;9088;55.674;13.354;2023-05-15T11:20:38;1.17;;;1.17;;
17925;SDS011;9088;55.674;13.354;2023-05-15T11:23:05;1.53;;;1.53;;
17925;SDS011;9088;55.674;13.354;2023-05-15T11:25:33;1.45;;;1.45;;
17925;SDS011;9088;55.674;13.354;2023-05-15T11:28:01;1.20;;;1.20;;
17925;SDS011;9088;55.674;13.354;2023-05-15T11:30:35;1.40;;;1.40;;
17925;SDS011;9088;55.674;13.354;2023-05-15T11:33:03;1.60;;;1.60;;
17925;SDS011;9088;55.674;13.354;2023-05-15T11:35:33;1.60;;;1.60;;
17925;SDS011;9088;55.674;13.354;2023-05-15T11:38:02;1.42;;;1.42;;
17925;SDS011;9088;55.674;13.354;2023-05-15T11:40:30;1.50;;;1.50;;
17925;SDS011;9088;55.674;13.354;2023-05-15T11:43:03;1.50;;;1.50;;
17925;SDS011;9088;55.674;13.354;2023-05-15T11:45:31;1.58;;;1.58;;
17925;SDS011;9088;55.674;13.354;2023-05-15T11:47:59;1.40;;;1.40;;
17925;SDS011;9088;55.674;13.354;2023-05-15T11:50:27;1.37;;;1.37;;
17925;SDS011;9088;55.674;13.354;2023-05-15T11:52:56;1.40;;;1.40;;
17925;SDS011;9088;55.674;13.354;2023-05-15T11:55:27;1.60;;;1.60;;
17925;SDS011;9088;55.674;13.354;2023-05-15T11:57:55;1.43;;;1.43;;
17925;SDS011;9088;55.674;13.354;2023-05-15T12:00:22;1.55;;;1.55;;
17925;SDS011;9088;55.674;13.354;2023-05-15T12:02:50;1.60;;;1.60;;
17925;SDS011;9088;55.674;13.354;2023-05-15T12:05:17;1.43;;;1.43;;
17925;SDS011;9088;55.674;13.354;2023-05-15T12:07:44;1.60;;;1.60;;
17925;SDS011;9088;55.674;13.354;2023-05-15T12:10:11;1.53;;;1.53;;
17925;SDS011;9088;55.674;13.354;2023-05-15T12:12:40;1.40;;;1.40;;
17925;SDS011;9088;55.674;13.354;2023-05-15T12:15:10;1.50;;;1.50;;
17925;SDS011;9088;55.674;13.354;2023-05-15T12:17:37;1.60;;;1.60;;
17925;SDS011;9088;55.674;13.354;2023-05-15T12:20:07;1.42;;;1.42;;
17925;SDS011;9088;55.674;13.354;2023-05-15T12:22:35;1.40;;;1.40;;
17925;SDS011;9088;55.674;13.354;2023-05-15T12:25:02;1.40;;;1.40;;
17925;SDS011;9088;55.674;13.354;2023-05-15T12:27:29;1.55;;;1.55;;
17925;SDS011;9088;55.674;13.354;2023-05-15T12:29:58;1.40;;;1.40;;
17925;SDS011;9088;55.674;13.354;2023-05-15T12:32:25;1.50;;;1.50;;
17925;SDS011;9088;55.674;13.354;2023-05-15T12:34:52;1.30;;;1.30;;
17925;SDS011;9088;55.674;13.354;2023-05-15T12:37:19;1.60;;;1.60;;
17925;SDS011;9088;55.674;13.354;2023-05-15T12:39:50;1.48;;;1.48;;
17925;SDS011;9088;55.674;13.354;2023-05-15T12:42:17;1.58;;;1.58;;
17925;SDS011;9088;55.674;13.354;2023-05-15T12:44:44;1.42;;;1.42;;
17925;SDS011;9088;55.674;13.354;2023-05-15T12:47:13;1.55;;;1.55;;
17925;SDS011;9088;55.674;13.354;2023-05-15T12:49:41;1.60;;;1.60;;
17925;SDS011;9088;55.674;13.354;2023-05-15T12:52:08;1.50;;;1.50;;
17925;SDS011;9088;55.674;13.354;2023-05-15T12:54:38;1.40;;;1.40;;
17925;SDS011;9088;55.674;13.354;2023-05-15T12:57:06;1.38;;;1.38;;
17925;SDS011;9088;55.674;13.354;2023-05-15T12:59:35;1.50;;;1.50;;
17925;SDS011;9088;55.674;13.354;2023-05-15T13:02:09;1.50;;;1.50;;
17925;SDS011;9088;55.674;13.354;2023-05-15T13:04:37;1.65;;;1.65;;
17925;SDS011;9088;55.674;13.354;2023-05-15T13:07:04;1.45;;;1.45;;
17925;SDS011;9088;55.674;13.354;2023-05-15T13:09:32;1.50;;;1.50;;
17925;SDS011;9088;55.674;13.354;2023-05-15T13:12:00;1.48;;;1.48;;
17925;SDS011;9088;55.674;13.354;2023-05-15T13:14:30;1.38;;;1.38;;
17925;SDS011;9088;55.674;13.354;2023-05-15T13:16:58;1.40;;;1.40;;
17925;SDS011;9088;55.674;13.354;2023-05-15T13:19:26;1.17;;;1.17;;
17925;SDS011;9088;55.674;13.354;2023-05-15T13:21:55;1.52;;;1.52;;
17925;SDS011;9088;55.674;13.354;2023-05-15T13:24:22;1.33;;;1.33;;
17925;SDS011;9088;55.674;13.354;2023-05-15T13:26:49;1.48;;;1.48;;
17925;SDS011;9088;55.674;13.354;2023-05-15T13:29:17;1.40;;;1.40;;
17925;SDS011;9088;55.674;13.354;2023-05-15T13:31:44;1.55;;;1.55;;
17925;SDS011;9088;55.674;13.354;2023-05-15T13:34:11;1.40;;;1.40;;
17925;SDS011;9088;55.674;13.354;2023-05-15T13:36:38;1.20;;;1.20;;
17925;SDS011;9088;55.674;13.354;2023-05-15T13:39:07;1.25;;;1.25;;
17925;SDS011;9088;55.674;13.354;2023-05-15T13:41:35;1.23;;;1.23;;
17925;SDS011;9088;55.674;13.354;2023-05-15T13:44:02;1.35;;;1.35;;
17925;SDS011;9088;55.674;13.354;2023-05-15T13:46:30;1.13;;;1.13;;
17925;SDS011;9088;55.674;13.354;2023-05-15T13:48:57;1.23;;;1.23;;
17925;SDS011;9088;55.674;13.354;2023-05-15T13:51:25;1.27;;;1.27;;
17925;SDS011;9088;55.674;13.354;2023-05-15T13:53:52;1.30;;;1.30;;
17925;SDS011;9088;55.674;13.354;2023-05-15T13:56:20;1.25;;;1.25;;
17925;SDS011;9088;55.674;13.354;2023-05-15T13:58:47;1.60;;;1.60;;
17925;SDS011;9088;55.674;13.354;2023-05-15T14:01:14;1.20;;;1.20;;
17925;SDS011;9088;55.674;13.354;2023-05-15T14:03:41;1.40;;;1.40;;
17925;SDS011;9088;55.674;13.354;2023-05-15T14:06:09;1.30;;;1.30;;
17925;SDS011;9088;55.674;13.354;2023-05-15T14:08:36;1.30;;;1.30;;
17925;SDS011;9088;55.674;13.354;2023-05-15T14:11:03;1.38;;;1.38;;
17925;SDS011;9088;55.674;13.354;2023-05-15T14:13:31;1.25;;;1.25;;
17925;SDS011;9088;55.674;13.354;2023-05-15T14:15:58;1.38;;;1.38;;
17925;SDS011;9088;55.674;13.354;2023-05-15T14:18:25;1.13;;;1.13;;
17925;SDS011;9088;55.674;13.354;2023-05-15T14:20:52;1.38;;;1.38;;
17925;SDS011;9088;55.674;13.354;2023-05-15T14:23:20;1.10;;;1.10;;
17925;SDS011;9088;55.674;13.354;2023-05-15T14:25:47;1.20;;;1.20;;
17925;SDS011;9088;55.674;13.354;2023-05-15T14:28:14;1.30;;;1.30;;
17925;SDS011;9088;55.674;13.354;2023-05-15T14:30:42;1.30;;;1.30;;
17925;SDS011;9088;55.674;13.354;2023-05-15T14:33:09;1.42;;;1.42;;
17925;SDS011;9088;55.674;13.354;2023-05-15T14:35:36;1.50;;;1.50;;
17925;SDS011;9088;55.674;13.354;2023-05-15T14:38:04;1.58;;;1.58;;
17925;SDS011;9088;55.674;13.354;2023-05-15T14:40:31;1.35;;;1.35;;
17925;SDS011;9088;55.674;13.354;2023-05-15T14:42:58;1.67;;;1.67;;
17925;SDS011;9088;55.674;13.354;2023-05-15T14:45:26;1.67;;;1.67;;
17925;SDS011;9088;55.674;13.354;2023-05-15T14:47:55;1.60;;;1.60;;
17925;SDS011;9088;55.674;13.354;2023-05-15T14:50:22;1.42;;;1.42;;
17925;SDS011;9088;55.674;13.354;2023-05-15T14:52:49;1.70;;;1.70;;
17925;SDS011;9088;55.674;13.354;2023-05-15T14:55:18;1.50;;;1.50;;